Washington Mills, New York
Current Conditions -  °F | °C
As of 9:53 AM on Saturday 20 Dec 2014 (Local Time) from KRME Reporting Station
Overcast Overcast  
Wind Chill: 16°   Ceiling: 1800
Heat Index: 22°   Visibility: 10mi
Dew Point: 18°   Wind: 5mph
Humidity: 85%   Direction: 90°E
Pressure: 30.33"   Gusts: NA
Location:  43.05°N, 75.27°W
Report Text: KRME 201453Z 09004KT 10SM OVC018 M06/M08 A3033 RMK AO2 SLP276 T10561078 51005
Loading
Personal Weather Stations






























Interactive Weather Map New forecast layout! Learn more

10-Day Weather Forecast

Advertisements
Track Severe Weather on mobile